sensor_id;sensor_type;location;lat;lon;timestamp;P1;durP1;ratioP1;P2;durP2;ratioP2
17145;SDS011;8688;54.444;18.444;2023-01-10T00:01:27;15.80;;;9.80;;
17145;SDS011;8688;54.444;18.444;2023-01-10T00:03:55;16.33;;;9.77;;
17145;SDS011;8688;54.444;18.444;2023-01-10T00:06:22;15.10;;;8.87;;
17145;SDS011;8688;54.444;18.444;2023-01-10T00:08:50;16.40;;;9.10;;
17145;SDS011;8688;54.444;18.444;2023-01-10T00:11:17;16.27;;;9.63;;
17145;SDS011;8688;54.444;18.444;2023-01-10T00:14:02;16.47;;;9.33;;
17145;SDS011;8688;54.444;18.444;2023-01-10T00:16:31;17.00;;;10.00;;
17145;SDS011;8688;54.444;18.444;2023-01-10T00:18:59;13.90;;;8.60;;
17145;SDS011;8688;54.444;18.444;2023-01-10T00:21:26;18.00;;;10.03;;
17145;SDS011;8688;54.444;18.444;2023-01-10T00:23:54;13.13;;;8.50;;
17145;SDS011;8688;54.444;18.444;2023-01-10T00:28:54;12.17;;;8.07;;
17145;SDS011;8688;54.444;18.444;2023-01-10T00:31:22;16.80;;;9.33;;
17145;SDS011;8688;54.444;18.444;2023-01-10T00:33:53;17.57;;;8.83;;
17145;SDS011;8688;54.444;18.444;2023-01-10T00:36:20;18.23;;;9.33;;
17145;SDS011;8688;54.444;18.444;2023-01-10T00:38:48;16.40;;;9.13;;
17145;SDS011;8688;54.444;18.444;2023-01-10T00:41:15;16.17;;;9.07;;
17145;SDS011;8688;54.444;18.444;2023-01-10T00:43:56;18.57;;;9.43;;
17145;SDS011;8688;54.444;18.444;2023-01-10T00:46:24;16.23;;;8.73;;
17145;SDS011;8688;54.444;18.444;2023-01-10T00:48:53;14.33;;;7.97;;
17145;SDS011;8688;54.444;18.444;2023-01-10T00:51:21;13.03;;;7.13;;
17145;SDS011;8688;54.444;18.444;2023-01-10T00:53:48;13.00;;;7.10;;
17145;SDS011;8688;54.444;18.444;2023-01-10T00:56:16;13.40;;;8.27;;
17145;SDS011;8688;54.444;18.444;2023-01-10T00:58:43;14.27;;;8.50;;
17145;SDS011;8688;54.444;18.444;2023-01-10T01:01:11;18.30;;;9.27;;
17145;SDS011;8688;54.444;18.444;2023-01-10T01:03:38;18.70;;;9.20;;
17145;SDS011;8688;54.444;18.444;2023-01-10T01:06:08;17.83;;;9.53;;
17145;SDS011;8688;54.444;18.444;2023-01-10T01:08:35;18.03;;;10.00;;
17145;SDS011;8688;54.444;18.444;2023-01-10T01:11:03;15.53;;;8.40;;
17145;SDS011;8688;54.444;18.444;2023-01-10T01:13:30;14.03;;;8.30;;
17145;SDS011;8688;54.444;18.444;2023-01-10T01:15:58;13.47;;;8.03;;
17145;SDS011;8688;54.444;18.444;2023-01-10T01:18:26;13.70;;;7.87;;
17145;SDS011;8688;54.444;18.444;2023-01-10T01:20:54;11.97;;;7.53;;
17145;SDS011;8688;54.444;18.444;2023-01-10T01:23:26;14.50;;;7.33;;
17145;SDS011;8688;54.444;18.444;2023-01-10T01:25:54;16.57;;;8.43;;
17145;SDS011;8688;54.444;18.444;2023-01-10T01:28:22;19.43;;;9.13;;
17145;SDS011;8688;54.444;18.444;2023-01-10T01:30:50;19.87;;;9.70;;
17145;SDS011;8688;54.444;18.444;2023-01-10T01:33:18;20.07;;;9.17;;
17145;SDS011;8688;54.444;18.444;2023-01-10T01:35:46;16.90;;;9.27;;
17145;SDS011;8688;54.444;18.444;2023-01-10T01:38:14;15.67;;;7.17;;
17145;SDS011;8688;54.444;18.444;2023-01-10T01:40:44;12.77;;;7.27;;
17145;SDS011;8688;54.444;18.444;2023-01-10T01:43:18;12.10;;;7.60;;
17145;SDS011;8688;54.444;18.444;2023-01-10T01:45:49;11.50;;;6.90;;
17145;SDS011;8688;54.444;18.444;2023-01-10T01:48:29;11.33;;;7.30;;
17145;SDS011;8688;54.444;18.444;2023-01-10T01:51:01;18.70;;;8.90;;
17145;SDS011;8688;54.444;18.444;2023-01-10T01:53:36;17.80;;;9.07;;
17145;SDS011;8688;54.444;18.444;2023-01-10T01:56:10;18.77;;;9.70;;
17145;SDS011;8688;54.444;18.444;2023-01-10T01:58:43;15.13;;;8.60;;
17145;SDS011;8688;54.444;18.444;2023-01-10T02:01:13;13.80;;;8.80;;
17145;SDS011;8688;54.444;18.444;2023-01-10T02:03:42;13.77;;;8.27;;
17145;SDS011;8688;54.444;18.444;2023-01-10T02:06:14;13.83;;;8.13;;
17145;SDS011;8688;54.444;18.444;2023-01-10T02:08:44;14.50;;;8.43;;
17145;SDS011;8688;54.444;18.444;2023-01-10T02:11:18;13.13;;;7.00;;
17145;SDS011;8688;54.444;18.444;2023-01-10T02:13:45;11.90;;;7.63;;
17145;SDS011;8688;54.444;18.444;2023-01-10T02:16:14;14.03;;;7.07;;
17145;SDS011;8688;54.444;18.444;2023-01-10T02:18:42;13.17;;;6.67;;
17145;SDS011;8688;54.444;18.444;2023-01-10T02:21:17;11.60;;;6.37;;
17145;SDS011;8688;54.444;18.444;2023-01-10T02:24:24;12.17;;;6.63;;
17145;SDS011;8688;54.444;18.444;2023-01-10T02:27:19;10.83;;;6.23;;
17145;SDS011;8688;54.444;18.444;2023-01-10T02:32:53;11.07;;;5.93;;
17145;SDS011;8688;54.444;18.444;2023-01-10T02:43:13;11.87;;;5.73;;
17145;SDS011;8688;54.444;18.444;2023-01-10T02:45:45;12.77;;;6.80;;
17145;SDS011;8688;54.444;18.444;2023-01-10T02:48:17;11.20;;;7.17;;
17145;SDS011;8688;54.444;18.444;2023-01-10T02:50:49;12.23;;;6.67;;
17145;SDS011;8688;54.444;18.444;2023-01-10T02:53:23;10.53;;;6.40;;
17145;SDS011;8688;54.444;18.444;2023-01-10T02:55:57;11.40;;;6.10;;
17145;SDS011;8688;54.444;18.444;2023-01-10T02:58:39;12.17;;;6.37;;
17145;SDS011;8688;54.444;18.444;2023-01-10T03:01:20;12.07;;;6.40;;
17145;SDS011;8688;54.444;18.444;2023-01-10T03:04:00;11.07;;;6.30;;
17145;SDS011;8688;54.444;18.444;2023-01-10T03:06:33;11.77;;;6.40;;
17145;SDS011;8688;54.444;18.444;2023-01-10T03:09:10;9.60;;;5.73;;
17145;SDS011;8688;54.444;18.444;2023-01-10T03:11:44;10.93;;;6.07;;
17145;SDS011;8688;54.444;18.444;2023-01-10T03:14:15;11.07;;;6.63;;
17145;SDS011;8688;54.444;18.444;2023-01-10T03:16:45;11.27;;;6.63;;
17145;SDS011;8688;54.444;18.444;2023-01-10T03:19:20;10.07;;;6.47;;
17145;SDS011;8688;54.444;18.444;2023-01-10T03:21:50;13.23;;;7.23;;
17145;SDS011;8688;54.444;18.444;2023-01-10T03:24:22;11.83;;;6.90;;
17145;SDS011;8688;54.444;18.444;2023-01-10T03:26:55;12.00;;;7.00;;
17145;SDS011;8688;54.444;18.444;2023-01-10T03:29:27;11.83;;;6.73;;
17145;SDS011;8688;54.444;18.444;2023-01-10T03:31:59;12.27;;;7.33;;
17145;SDS011;8688;54.444;18.444;2023-01-10T03:34:32;13.40;;;7.53;;
17145;SDS011;8688;54.444;18.444;2023-01-10T03:37:02;13.37;;;7.03;;
17145;SDS011;8688;54.444;18.444;2023-01-10T03:39:38;12.37;;;6.43;;
17145;SDS011;8688;54.444;18.444;2023-01-10T03:42:15;10.33;;;6.10;;
17145;SDS011;8688;54.444;18.444;2023-01-10T03:44:49;11.10;;;6.93;;
17145;SDS011;8688;54.444;18.444;2023-01-10T03:47:23;14.10;;;7.73;;
17145;SDS011;8688;54.444;18.444;2023-01-10T03:49:58;12.33;;;7.00;;
17145;SDS011;8688;54.444;18.444;2023-01-10T03:52:29;12.70;;;6.87;;
17145;SDS011;8688;54.444;18.444;2023-01-10T03:54:59;11.17;;;6.57;;
17145;SDS011;8688;54.444;18.444;2023-01-10T03:57:29;12.87;;;7.10;;
17145;SDS011;8688;54.444;18.444;2023-01-10T03:59:57;11.27;;;6.83;;
17145;SDS011;8688;54.444;18.444;2023-01-10T04:02:27;9.53;;;6.30;;
17145;SDS011;8688;54.444;18.444;2023-01-10T04:04:57;12.80;;;6.77;;
17145;SDS011;8688;54.444;18.444;2023-01-10T04:07:25;14.07;;;7.10;;
17145;SDS011;8688;54.444;18.444;2023-01-10T04:09:53;13.90;;;7.43;;
17145;SDS011;8688;54.444;18.444;2023-01-10T04:15:09;9.93;;;6.20;;
17145;SDS011;8688;54.444;18.444;2023-01-10T04:17:37;12.70;;;6.43;;
17145;SDS011;8688;54.444;18.444;2023-01-10T04:20:06;11.37;;;6.40;;
17145;SDS011;8688;54.444;18.444;2023-01-10T04:22:35;13.33;;;7.20;;
17145;SDS011;8688;54.444;18.444;2023-01-10T04:25:03;14.00;;;7.50;;
17145;SDS011;8688;54.444;18.444;2023-01-10T04:27:31;16.57;;;8.27;;
17145;SDS011;8688;54.444;18.444;2023-01-10T04:29:58;16.37;;;7.97;;
17145;SDS011;8688;54.444;18.444;2023-01-10T04:32:26;15.13;;;7.90;;
17145;SDS011;8688;54.444;18.444;2023-01-10T04:34:53;13.80;;;8.43;;
17145;SDS011;8688;54.444;18.444;2023-01-10T04:37:22;13.40;;;8.20;;
17145;SDS011;8688;54.444;18.444;2023-01-10T04:39:50;13.60;;;8.10;;
17145;SDS011;8688;54.444;18.444;2023-01-10T04:42:17;18.37;;;8.83;;
17145;SDS011;8688;54.444;18.444;2023-01-10T04:44:45;16.33;;;8.90;;
17145;SDS011;8688;54.444;18.444;2023-01-10T04:47:12;14.83;;;8.53;;
17145;SDS011;8688;54.444;18.444;2023-01-10T04:49:40;16.63;;;9.23;;
17145;SDS011;8688;54.444;18.444;2023-01-10T04:52:07;14.17;;;8.70;;
17145;SDS011;8688;54.444;18.444;2023-01-10T04:54:37;19.17;;;11.27;;
17145;SDS011;8688;54.444;18.444;2023-01-10T04:57:04;18.30;;;9.87;;
17145;SDS011;8688;54.444;18.444;2023-01-10T04:59:32;21.20;;;10.67;;
17145;SDS011;8688;54.444;18.444;2023-01-10T05:01:59;24.07;;;10.83;;
17145;SDS011;8688;54.444;18.444;2023-01-10T05:04:27;21.40;;;10.83;;
17145;SDS011;8688;54.444;18.444;2023-01-10T05:06:54;22.73;;;10.93;;
17145;SDS011;8688;54.444;18.444;2023-01-10T05:09:22;25.37;;;13.87;;
17145;SDS011;8688;54.444;18.444;2023-01-10T05:11:51;23.67;;;11.20;;
17145;SDS011;8688;54.444;18.444;2023-01-10T05:14:19;20.37;;;10.77;;
17145;SDS011;8688;54.444;18.444;2023-01-10T05:16:46;20.63;;;10.57;;
17145;SDS011;8688;54.444;18.444;2023-01-10T05:19:14;20.50;;;10.87;;
17145;SDS011;8688;54.444;18.444;2023-01-10T05:21:41;20.97;;;10.90;;
17145;SDS011;8688;54.444;18.444;2023-01-10T05:24:09;23.33;;;11.27;;
17145;SDS011;8688;54.444;18.444;2023-01-10T05:26:36;25.47;;;11.53;;
17145;SDS011;8688;54.444;18.444;2023-01-10T05:29:05;22.97;;;11.03;;
17145;SDS011;8688;54.444;18.444;2023-01-10T05:31:35;20.47;;;10.37;;
17145;SDS011;8688;54.444;18.444;2023-01-10T05:34:02;21.30;;;11.27;;
17145;SDS011;8688;54.444;18.444;2023-01-10T05:36:30;20.37;;;11.33;;
17145;SDS011;8688;54.444;18.444;2023-01-10T05:38:57;30.40;;;15.63;;
17145;SDS011;8688;54.444;18.444;2023-01-10T05:41:24;27.00;;;13.60;;
17145;SDS011;8688;54.444;18.444;2023-01-10T05:43:52;22.93;;;13.97;;
17145;SDS011;8688;54.444;18.444;2023-01-10T05:46:21;24.97;;;13.70;;
17145;SDS011;8688;54.444;18.444;2023-01-10T05:51:16;25.33;;;13.47;;
17145;SDS011;8688;54.444;18.444;2023-01-10T05:53:44;24.00;;;13.10;;
17145;SDS011;8688;54.444;18.444;2023-01-10T05:56:11;23.97;;;13.47;;
17145;SDS011;8688;54.444;18.444;2023-01-10T05:58:39;25.53;;;13.40;;
17145;SDS011;8688;54.444;18.444;2023-01-10T06:01:06;24.67;;;13.13;;
17145;SDS011;8688;54.444;18.444;2023-01-10T06:03:35;19.37;;;12.23;;
17145;SDS011;8688;54.444;18.444;2023-01-10T06:06:03;20.90;;;12.07;;
17145;SDS011;8688;54.444;18.444;2023-01-10T06:08:30;20.30;;;11.37;;
17145;SDS011;8688;54.444;18.444;2023-01-10T06:10:58;21.53;;;11.57;;
17145;SDS011;8688;54.444;18.444;2023-01-10T06:13:25;20.80;;;10.63;;
17145;SDS011;8688;54.444;18.444;2023-01-10T06:15:53;21.47;;;11.03;;
17145;SDS011;8688;54.444;18.444;2023-01-10T06:18:20;19.30;;;10.90;;
17145;SDS011;8688;54.444;18.444;2023-01-10T06:20:49;22.70;;;11.00;;
17145;SDS011;8688;54.444;18.444;2023-01-10T06:23:17;19.90;;;11.00;;
17145;SDS011;8688;54.444;18.444;2023-01-10T06:25:44;18.07;;;10.20;;
17145;SDS011;8688;54.444;18.444;2023-01-10T06:28:12;21.80;;;10.50;;
17145;SDS011;8688;54.444;18.444;2023-01-10T06:30:41;17.57;;;10.83;;
17145;SDS011;8688;54.444;18.444;2023-01-10T06:33:09;22.80;;;13.43;;
17145;SDS011;8688;54.444;18.444;2023-01-10T06:35:36;22.83;;;13.13;;
17145;SDS011;8688;54.444;18.444;2023-01-10T06:38:06;22.80;;;12.10;;
17145;SDS011;8688;54.444;18.444;2023-01-10T06:40:33;21.80;;;12.47;;
17145;SDS011;8688;54.444;18.444;2023-01-10T06:43:00;23.50;;;12.83;;
17145;SDS011;8688;54.444;18.444;2023-01-10T06:45:28;21.27;;;11.43;;
17145;SDS011;8688;54.444;18.444;2023-01-10T06:47:56;20.97;;;11.87;;
17145;SDS011;8688;54.444;18.444;2023-01-10T06:50:23;21.00;;;12.43;;
17145;SDS011;8688;54.444;18.444;2023-01-10T06:52:54;26.80;;;13.23;;
17145;SDS011;8688;54.444;18.444;2023-01-10T06:55:24;22.63;;;11.23;;
17145;SDS011;8688;54.444;18.444;2023-01-10T06:57:55;19.90;;;10.70;;
17145;SDS011;8688;54.444;18.444;2023-01-10T07:00:23;19.43;;;11.23;;
17145;SDS011;8688;54.444;18.444;2023-01-10T07:02:52;20.67;;;10.17;;
17145;SDS011;8688;54.444;18.444;2023-01-10T07:05:20;21.10;;;10.80;;
17145;SDS011;8688;54.444;18.444;2023-01-10T07:07:48;20.10;;;10.63;;
17145;SDS011;8688;54.444;18.444;2023-01-10T07:10:15;17.67;;;10.00;;
17145;SDS011;8688;54.444;18.444;2023-01-10T07:12:44;20.47;;;10.63;;
17145;SDS011;8688;54.444;18.444;2023-01-10T07:15:12;21.37;;;11.33;;
17145;SDS011;8688;54.444;18.444;2023-01-10T07:17:39;20.47;;;11.53;;
17145;SDS011;8688;54.444;18.444;2023-01-10T07:20:07;20.27;;;11.73;;
17145;SDS011;8688;54.444;18.444;2023-01-10T07:22:36;19.27;;;11.07;;
17145;SDS011;8688;54.444;18.444;2023-01-10T07:25:04;17.53;;;11.13;;
17145;SDS011;8688;54.444;18.444;2023-01-10T07:27:32;19.90;;;10.90;;
17145;SDS011;8688;54.444;18.444;2023-01-10T07:30:01;22.27;;;11.60;;
17145;SDS011;8688;54.444;18.444;2023-01-10T07:32:28;18.20;;;9.70;;
17145;SDS011;8688;54.444;18.444;2023-01-10T07:34:56;18.03;;;10.50;;
17145;SDS011;8688;54.444;18.444;2023-01-10T07:37:23;19.73;;;11.10;;
17145;SDS011;8688;54.444;18.444;2023-01-10T07:39:51;22.03;;;11.07;;
17145;SDS011;8688;54.444;18.444;2023-01-10T07:42:18;23.43;;;11.67;;
17145;SDS011;8688;54.444;18.444;2023-01-10T07:44:46;20.77;;;11.73;;
17145;SDS011;8688;54.444;18.444;2023-01-10T07:47:15;20.13;;;12.13;;
17145;SDS011;8688;54.444;18.444;2023-01-10T07:49:42;18.87;;;11.07;;
17145;SDS011;8688;54.444;18.444;2023-01-10T07:52:10;19.33;;;11.17;;
17145;SDS011;8688;54.444;18.444;2023-01-10T07:54:37;18.10;;;10.83;;
17145;SDS011;8688;54.444;18.444;2023-01-10T07:57:05;21.77;;;11.63;;
17145;SDS011;8688;54.444;18.444;2023-01-10T07:59:32;20.47;;;11.07;;
17145;SDS011;8688;54.444;18.444;2023-01-10T08:02:00;22.83;;;10.97;;
17145;SDS011;8688;54.444;18.444;2023-01-10T08:04:29;21.20;;;10.63;;
17145;SDS011;8688;54.444;18.444;2023-01-10T08:06:56;19.70;;;10.10;;
17145;SDS011;8688;54.444;18.444;2023-01-10T08:09:24;22.17;;;11.90;;
17145;SDS011;8688;54.444;18.444;2023-01-10T08:11:51;20.87;;;11.70;;
17145;SDS011;8688;54.444;18.444;2023-01-10T08:14:19;16.97;;;10.50;;
17145;SDS011;8688;54.444;18.444;2023-01-10T08:16:46;19.40;;;11.13;;
17145;SDS011;8688;54.444;18.444;2023-01-10T08:19:14;22.03;;;11.40;;
17145;SDS011;8688;54.444;18.444;2023-01-10T08:21:44;23.17;;;12.13;;
17145;SDS011;8688;54.444;18.444;2023-01-10T08:24:12;25.00;;;12.33;;
17145;SDS011;8688;54.444;18.444;2023-01-10T08:26:39;24.73;;;11.90;;
17145;SDS011;8688;54.444;18.444;2023-01-10T08:29:07;22.67;;;11.93;;
17145;SDS011;8688;54.444;18.444;2023-01-10T08:31:34;22.43;;;11.90;;
17145;SDS011;8688;54.444;18.444;2023-01-10T08:34:01;22.83;;;11.93;;
17145;SDS011;8688;54.444;18.444;2023-01-10T08:36:29;27.13;;;12.70;;
17145;SDS011;8688;54.444;18.444;2023-01-10T08:38:58;24.20;;;12.90;;
17145;SDS011;8688;54.444;18.444;2023-01-10T08:41:25;25.70;;;12.83;;
17145;SDS011;8688;54.444;18.444;2023-01-10T08:43:53;27.43;;;13.83;;
17145;SDS011;8688;54.444;18.444;2023-01-10T08:46:20;26.20;;;14.10;;
17145;SDS011;8688;54.444;18.444;2023-01-10T08:48:48;27.43;;;12.83;;
17145;SDS011;8688;54.444;18.444;2023-01-10T08:51:16;30.60;;;14.57;;
17145;SDS011;8688;54.444;18.444;2023-01-10T08:53:43;28.57;;;14.03;;
17145;SDS011;8688;54.444;18.444;2023-01-10T08:56:12;31.13;;;15.10;;
17145;SDS011;8688;54.444;18.444;2023-01-10T08:58:40;31.23;;;14.43;;
17145;SDS011;8688;54.444;18.444;2023-01-10T09:01:08;32.67;;;15.73;;
17145;SDS011;8688;54.444;18.444;2023-01-10T09:03:37;30.23;;;13.97;;
17145;SDS011;8688;54.444;18.444;2023-01-10T09:06:05;30.97;;;15.40;;
17145;SDS011;8688;54.444;18.444;2023-01-10T09:08:33;33.13;;;15.67;;
17145;SDS011;8688;54.444;18.444;2023-01-10T09:11:01;39.27;;;15.10;;
17145;SDS011;8688;54.444;18.444;2023-01-10T09:13:31;37.63;;;16.53;;
17145;SDS011;8688;54.444;18.444;2023-01-10T09:15:59;37.53;;;16.53;;
17145;SDS011;8688;54.444;18.444;2023-01-10T09:18:27;29.77;;;15.10;;
17145;SDS011;8688;54.444;18.444;2023-01-10T09:20:54;28.57;;;14.57;;
17145;SDS011;8688;54.444;18.444;2023-01-10T09:23:22;34.00;;;15.80;;
17145;SDS011;8688;54.444;18.444;2023-01-10T09:25:51;28.90;;;14.37;;
17145;SDS011;8688;54.444;18.444;2023-01-10T09:28:20;29.57;;;14.73;;
17145;SDS011;8688;54.444;18.444;2023-01-10T09:30:50;30.17;;;14.00;;
17145;SDS011;8688;54.444;18.444;2023-01-10T09:33:18;31.87;;;15.20;;
17145;SDS011;8688;54.444;18.444;2023-01-10T09:35:45;27.50;;;15.20;;
17145;SDS011;8688;54.444;18.444;2023-01-10T09:38:14;25.30;;;13.87;;
17145;SDS011;8688;54.444;18.444;2023-01-10T09:40:47;36.53;;;16.33;;
17145;SDS011;8688;54.444;18.444;2023-01-10T09:43:25;32.53;;;15.53;;
17145;SDS011;8688;54.444;18.444;2023-01-10T09:46:06;32.93;;;15.83;;
17145;SDS011;8688;54.444;18.444;2023-01-10T09:48:39;28.17;;;13.77;;
17145;SDS011;8688;54.444;18.444;2023-01-10T09:51:17;30.83;;;14.20;;
17145;SDS011;8688;54.444;18.444;2023-01-10T09:53:54;31.33;;;14.30;;
17145;SDS011;8688;54.444;18.444;2023-01-10T09:56:24;29.80;;;14.33;;
17145;SDS011;8688;54.444;18.444;2023-01-10T09:58:53;30.60;;;14.30;;
17145;SDS011;8688;54.444;18.444;2023-01-10T10:01:24;29.60;;;13.77;;
17145;SDS011;8688;54.444;18.444;2023-01-10T10:03:57;30.40;;;14.20;;
17145;SDS011;8688;54.444;18.444;2023-01-10T10:06:30;25.57;;;12.83;;
17145;SDS011;8688;54.444;18.444;2023-01-10T10:08:59;25.27;;;13.60;;
17145;SDS011;8688;54.444;18.444;2023-01-10T10:11:30;30.20;;;13.93;;
17145;SDS011;8688;54.444;18.444;2023-01-10T10:14:10;25.87;;;12.87;;
17145;SDS011;8688;54.444;18.444;2023-01-10T10:16:52;28.20;;;13.30;;
17145;SDS011;8688;54.444;18.444;2023-01-10T10:19:33;27.20;;;12.90;;
17145;SDS011;8688;54.444;18.444;2023-01-10T10:22:15;29.70;;;12.90;;
17145;SDS011;8688;54.444;18.444;2023-01-10T10:24:53;26.50;;;12.87;;
17145;SDS011;8688;54.444;18.444;2023-01-10T10:27:32;28.47;;;12.13;;
17145;SDS011;8688;54.444;18.444;2023-01-10T10:33:11;27.67;;;12.27;;
17145;SDS011;8688;54.444;18.444;2023-01-10T10:35:49;25.93;;;12.00;;
17145;SDS011;8688;54.444;18.444;2023-01-10T10:38:21;27.63;;;11.50;;
17145;SDS011;8688;54.444;18.444;2023-01-10T10:40:54;28.03;;;13.13;;
17145;SDS011;8688;54.444;18.444;2023-01-10T10:43:24;24.37;;;12.10;;
17145;SDS011;8688;54.444;18.444;2023-01-10T10:45:58;26.00;;;13.47;;
17145;SDS011;8688;54.444;18.444;2023-01-10T10:48:30;29.47;;;12.97;;
17145;SDS011;8688;54.444;18.444;2023-01-10T10:51:02;24.77;;;12.53;;
17145;SDS011;8688;54.444;18.444;2023-01-10T10:53:33;27.43;;;12.83;;
17145;SDS011;8688;54.444;18.444;2023-01-10T10:56:01;24.90;;;12.97;;
17145;SDS011;8688;54.444;18.444;2023-01-10T10:58:30;24.47;;;12.60;;
17145;SDS011;8688;54.444;18.444;2023-01-10T11:00:58;26.97;;;13.17;;
17145;SDS011;8688;54.444;18.444;2023-01-10T11:03:31;23.80;;;12.73;;
17145;SDS011;8688;54.444;18.444;2023-01-10T11:06:06;26.50;;;13.50;;
17145;SDS011;8688;54.444;18.444;2023-01-10T11:08:35;25.00;;;13.27;;
17145;SDS011;8688;54.444;18.444;2023-01-10T11:11:09;28.27;;;14.10;;
17145;SDS011;8688;54.444;18.444;2023-01-10T11:13:45;26.97;;;13.70;;
17145;SDS011;8688;54.444;18.444;2023-01-10T11:16:23;30.80;;;14.87;;
17145;SDS011;8688;54.444;18.444;2023-01-10T11:21:48;23.57;;;13.07;;
17145;SDS011;8688;54.444;18.444;2023-01-10T11:24:26;28.33;;;13.07;;
17145;SDS011;8688;54.444;18.444;2023-01-10T11:26:56;27.53;;;13.47;;
17145;SDS011;8688;54.444;18.444;2023-01-10T11:29:25;27.93;;;13.00;;
17145;SDS011;8688;54.444;18.444;2023-01-10T11:31:56;30.33;;;15.10;;
17145;SDS011;8688;54.444;18.444;2023-01-10T11:34:27;28.57;;;13.77;;
17145;SDS011;8688;54.444;18.444;2023-01-10T11:36:58;26.43;;;13.60;;
17145;SDS011;8688;54.444;18.444;2023-01-10T11:39:28;29.43;;;14.13;;
17145;SDS011;8688;54.444;18.444;2023-01-10T11:41:56;25.93;;;14.03;;
17145;SDS011;8688;54.444;18.444;2023-01-10T11:44:43;84.27;;;37.37;;
17145;SDS011;8688;54.444;18.444;2023-01-10T11:47:11;144.13;;;73.07;;
17145;SDS011;8688;54.444;18.444;2023-01-10T11:49:41;53.73;;;27.87;;
17145;SDS011;8688;54.444;18.444;2023-01-10T11:52:12;288.23;;;82.67;;
17145;SDS011;8688;54.444;18.444;2023-01-10T11:54:44;283.03;;;95.30;;
17145;SDS011;8688;54.444;18.444;2023-01-10T11:57:14;51.27;;;26.17;;
17145;SDS011;8688;54.444;18.444;2023-01-10T11:59:49;106.70;;;40.03;;
17145;SDS011;8688;54.444;18.444;2023-01-10T12:02:20;363.87;;;130.57;;
17145;SDS011;8688;54.444;18.444;2023-01-10T12:04:51;68.93;;;31.63;;
17145;SDS011;8688;54.444;18.444;2023-01-10T12:07:20;34.00;;;17.77;;
17145;SDS011;8688;54.444;18.444;2023-01-10T12:09:53;29.90;;;15.80;;
17145;SDS011;8688;54.444;18.444;2023-01-10T12:12:22;30.17;;;15.10;;
17145;SDS011;8688;54.444;18.444;2023-01-10T12:14:51;30.57;;;14.93;;
17145;SDS011;8688;54.444;18.444;2023-01-10T12:17:20;31.03;;;15.97;;
17145;SDS011;8688;54.444;18.444;2023-01-10T12:19:52;33.13;;;16.53;;
17145;SDS011;8688;54.444;18.444;2023-01-10T12:22:24;32.63;;;16.07;;
17145;SDS011;8688;54.444;18.444;2023-01-10T12:24:55;32.33;;;16.53;;
17145;SDS011;8688;54.444;18.444;2023-01-10T12:27:24;30.87;;;16.70;;
17145;SDS011;8688;54.444;18.444;2023-01-10T12:29:57;31.33;;;16.23;;
17145;SDS011;8688;54.444;18.444;2023-01-10T12:32:32;33.80;;;16.90;;
17145;SDS011;8688;54.444;18.444;2023-01-10T12:35:05;34.60;;;17.23;;
17145;SDS011;8688;54.444;18.444;2023-01-10T12:37:39;32.03;;;16.40;;
17145;SDS011;8688;54.444;18.444;2023-01-10T12:40:13;33.27;;;16.27;;
17145;SDS011;8688;54.444;18.444;2023-01-10T12:42:51;51.37;;;21.50;;
17145;SDS011;8688;54.444;18.444;2023-01-10T12:45:41;30.30;;;16.33;;
17145;SDS011;8688;54.444;18.444;2023-01-10T12:48:16;33.37;;;16.97;;
17145;SDS011;8688;54.444;18.444;2023-01-10T12:50:55;33.33;;;15.23;;
17145;SDS011;8688;54.444;18.444;2023-01-10T12:53:28;32.83;;;16.03;;
17145;SDS011;8688;54.444;18.444;2023-01-10T12:55:59;31.83;;;15.50;;
17145;SDS011;8688;54.444;18.444;2023-01-10T12:58:33;32.53;;;16.27;;
17145;SDS011;8688;54.444;18.444;2023-01-10T13:01:09;31.93;;;15.90;;
17145;SDS011;8688;54.444;18.444;2023-01-10T13:03:39;34.03;;;16.83;;
17145;SDS011;8688;54.444;18.444;2023-01-10T13:06:10;30.77;;;15.57;;
17145;SDS011;8688;54.444;18.444;2023-01-10T13:08:46;31.60;;;16.00;;
17145;SDS011;8688;54.444;18.444;2023-01-10T13:11:15;34.87;;;16.90;;
17145;SDS011;8688;54.444;18.444;2023-01-10T13:13:49;37.97;;;17.50;;
17145;SDS011;8688;54.444;18.444;2023-01-10T13:16:26;40.23;;;19.10;;
17145;SDS011;8688;54.444;18.444;2023-01-10T13:19:03;36.10;;;17.10;;
17145;SDS011;8688;54.444;18.444;2023-01-10T13:21:33;37.33;;;18.07;;
17145;SDS011;8688;54.444;18.444;2023-01-10T13:24:02;36.60;;;17.93;;
17145;SDS011;8688;54.444;18.444;2023-01-10T13:29:18;38.83;;;18.70;;
17145;SDS011;8688;54.444;18.444;2023-01-10T13:31:47;43.67;;;19.43;;
17145;SDS011;8688;54.444;18.444;2023-01-10T13:34:21;50.37;;;21.20;;
17145;SDS011;8688;54.444;18.444;2023-01-10T13:36:53;38.97;;;18.50;;
17145;SDS011;8688;54.444;18.444;2023-01-10T13:39:23;43.80;;;18.90;;
17145;SDS011;8688;54.444;18.444;2023-01-10T13:42:10;41.83;;;19.60;;
17145;SDS011;8688;54.444;18.444;2023-01-10T13:45:13;44.40;;;18.70;;
17145;SDS011;8688;54.444;18.444;2023-01-10T13:48:01;41.23;;;18.97;;
17145;SDS011;8688;54.444;18.444;2023-01-10T13:53:44;44.67;;;19.13;;
17145;SDS011;8688;54.444;18.444;2023-01-10T13:56:30;44.83;;;20.37;;
17145;SDS011;8688;54.444;18.444;2023-01-10T13:59:00;47.83;;;20.23;;
17145;SDS011;8688;54.444;18.444;2023-01-10T14:01:49;47.33;;;20.20;;
17145;SDS011;8688;54.444;18.444;2023-01-10T14:04:38;44.47;;;20.17;;
17145;SDS011;8688;54.444;18.444;2023-01-10T14:07:17;67.47;;;28.43;;
17145;SDS011;8688;54.444;18.444;2023-01-10T14:09:50;43.80;;;19.33;;
17145;SDS011;8688;54.444;18.444;2023-01-10T14:12:21;86.77;;;38.53;;
17145;SDS011;8688;54.444;18.444;2023-01-10T14:14:55;337.93;;;106.23;;
17145;SDS011;8688;54.444;18.444;2023-01-10T14:17:28;397.57;;;122.47;;
17145;SDS011;8688;54.444;18.444;2023-01-10T14:20:13;216.07;;;63.47;;
17145;SDS011;8688;54.444;18.444;2023-01-10T14:22:58;101.17;;;42.00;;
17145;SDS011;8688;54.444;18.444;2023-01-10T14:25:36;84.07;;;39.73;;
17145;SDS011;8688;54.444;18.444;2023-01-10T14:28:14;53.90;;;25.97;;
17145;SDS011;8688;54.444;18.444;2023-01-10T14:30:46;44.50;;;19.60;;
17145;SDS011;8688;54.444;18.444;2023-01-10T14:33:26;56.17;;;28.90;;
17145;SDS011;8688;54.444;18.444;2023-01-10T14:35:55;48.47;;;22.83;;
17145;SDS011;8688;54.444;18.444;2023-01-10T14:38:27;45.67;;;21.00;;
17145;SDS011;8688;54.444;18.444;2023-01-10T14:40:58;51.57;;;23.83;;
17145;SDS011;8688;54.444;18.444;2023-01-10T14:43:29;40.03;;;18.37;;
17145;SDS011;8688;54.444;18.444;2023-01-10T14:46:10;40.13;;;19.07;;
17145;SDS011;8688;54.444;18.444;2023-01-10T14:48:46;39.87;;;19.03;;
17145;SDS011;8688;54.444;18.444;2023-01-10T14:51:21;43.20;;;20.60;;
17145;SDS011;8688;54.444;18.444;2023-01-10T14:53:55;34.10;;;16.83;;
17145;SDS011;8688;54.444;18.444;2023-01-10T14:56:28;41.87;;;18.73;;
17145;SDS011;8688;54.444;18.444;2023-01-10T14:59:15;43.10;;;18.03;;
17145;SDS011;8688;54.444;18.444;2023-01-10T15:01:53;41.87;;;17.60;;
17145;SDS011;8688;54.444;18.444;2023-01-10T15:04:27;37.37;;;16.97;;
17145;SDS011;8688;54.444;18.444;2023-01-10T15:07:00;45.47;;;18.53;;
17145;SDS011;8688;54.444;18.444;2023-01-10T15:09:38;38.27;;;17.10;;
17145;SDS011;8688;54.444;18.444;2023-01-10T15:12:20;41.23;;;16.67;;
17145;SDS011;8688;54.444;18.444;2023-01-10T15:14:54;43.00;;;17.63;;
17145;SDS011;8688;54.444;18.444;2023-01-10T15:17:29;44.70;;;18.27;;
17145;SDS011;8688;54.444;18.444;2023-01-10T15:20:00;39.17;;;17.13;;